»·PEaware :: AAL523 KSNA-KLAS

AAL523 :: KSNA-KLAS

FLIGHT INFORMATION

Flight Status: Arrived
Operator:
American Airlines
More flights by this operator :: More flights under this callsign
Pilot: Ben F. (2808)
Aircraft: MCDONNELL-DOUGLAS MD-82
(MD82)
More flights by this aircraft type
Origin: KSNA John Wayne-Orange Co
United States
Destination: KLAS McCarran Intl
United States
More flights between these airports :: More routes between these airports
Route: FINZZ2 MISEN KEPEC6
File this flight plan on PilotEdge
Remarks: Marcus is the best's ever...SUP BOSS?
Altitude:
(Current/Filed)
29,000ft
Speed:
(Current/Filed)
443kts
Departed: 22-Feb-18 10:20 AM
Arrived: 22-Feb-18 11:04 AM
Distance/Time
Traveled:
197nm/0:43
Distance/Time
To Go:
Arrived

Flight Plot

Page will automatically refresh every two minutes.

Flight plan parsing failed; only flown route is shown


Map Options




Map Legend


Flown Route
Filed Route
Departure Airport
Arrival Airport
Navaid (VOR, NDB)
Fix

Horizontal Profiles

Position Reports

Time Latitude Longitude Heading Altitude Ground
Speed
22-Feb-18 10:13 33.678695 -117.862780 95 65ft 0kts
22-Feb-18 10:14 33.678695 -117.862780 95 65ft 0kts
22-Feb-18 10:15 33.678695 -117.862780 95 65ft 0kts
22-Feb-18 10:16 33.678695 -117.862780 95 65ft 0kts
22-Feb-18 10:17 33.678695 -117.862780 95 65ft 0kts
22-Feb-18 10:18 33.678695 -117.862780 95 65ft 0kts
22-Feb-18 10:19 33.678704 -117.862886 94 65ft 2kts
22-Feb-18 10:20 33.678599 -117.863610 50 65ft 2kts
22-Feb-18 10:21 33.678235 -117.863882 26 65ft 0kts
22-Feb-18 10:22 33.678237 -117.863881 26 65ft 0kts
22-Feb-18 10:23 33.678239 -117.863880 26 65ft 0kts
22-Feb-18 10:24 33.680818 -117.863536 300 65ft 10kts
22-Feb-18 10:25 33.681159 -117.864290 297 65ft 3kts
22-Feb-18 10:26 33.681181 -117.865399 209 65ft 0kts
22-Feb-18 10:27 33.664807 -117.875775 199 183ft 143kts
22-Feb-18 10:28 33.625675 -117.893292 187 2497ft 155kts
22-Feb-18 10:29 33.569444 -117.902063 197 4365ft 249kts
22-Feb-18 10:30 33.555107 -117.970447 310 7231ft 261kts
22-Feb-18 10:31 33.589592 -118.039315 263 9925ft 259kts
22-Feb-18 10:32 33.618356 -118.114439 338 11623ft 301kts
22-Feb-18 10:33 33.700829 -118.081950 25 13986ft 336kts
22-Feb-18 10:34 33.782072 -118.022798 22 16500ft 347kts
22-Feb-18 10:35 33.868823 -117.967526 18 18956ft 355kts
22-Feb-18 10:36 33.955736 -117.905552 28 20950ft 381kts
22-Feb-18 10:37 34.040738 -117.824440 30 22770ft 393kts
22-Feb-18 10:38 34.123864 -117.736222 40 24351ft 412kts
22-Feb-18 10:39 34.195641 -117.625497 43 25728ft 424kts
22-Feb-18 10:40 34.268965 -117.511876 42 26910ft 431kts
22-Feb-18 10:41 34.344690 -117.398305 42 27974ft 437kts
22-Feb-18 10:42 34.421724 -117.282987 41 28879ft 443kts
22-Feb-18 10:43 34.500110 -117.165578 41 29216ft 445kts
22-Feb-18 10:44 34.578562 -117.048806 41 29209ft 447kts
22-Feb-18 10:45 34.664250 -116.943109 14 29194ft 420kts
22-Feb-18 10:46 34.756651 -116.853785 46 29201ft 453kts
22-Feb-18 10:47 34.821463 -116.720326 52 29199ft 461kts
22-Feb-18 10:48 34.894051 -116.595629 32 29204ft 441kts
22-Feb-18 10:49 34.989775 -116.506081 26 28744ft 429kts
22-Feb-18 10:50 35.086937 -116.417890 29 24657ft 442kts
22-Feb-18 10:51 35.174656 -116.319072 38 22306ft 416kts
22-Feb-18 10:52 35.251942 -116.218787 39 19876ft 399kts
22-Feb-18 10:53 35.326697 -116.122971 39 18338ft 378kts
22-Feb-18 10:54 35.398376 -116.032756 39 16794ft 363kts
22-Feb-18 10:55 35.467359 -115.946332 40 14882ft 344kts
22-Feb-18 10:56 35.531567 -115.865469 41 13597ft 316kts
22-Feb-18 10:57 35.591619 -115.790203 42 12976ft 308kts
22-Feb-18 10:58 35.651113 -115.714837 42 13047ft 307kts
22-Feb-18 10:59 35.710413 -115.638693 43 12995ft 306kts
22-Feb-18 11:00 35.783826 -115.600591 1 11929ft 280kts
22-Feb-18 11:01 35.859178 -115.594782 359 10616ft 269kts
22-Feb-18 11:02 35.933741 -115.591838 359 9981ft 268kts
22-Feb-18 11:03 35.992539 -115.562761 41 10004ft 222kts
22-Feb-18 11:04 36.036707 -115.512244 42 9971ft 215kts
22-Feb-18 11:05 36.055554 -115.447916 85 9061ft 213kts
22-Feb-18 11:06 36.067574 -115.376368 83 7176ft 212kts
22-Feb-18 11:07 36.074493 -115.304493 90 5138ft 200kts
22-Feb-18 11:08 36.074179 -115.239916 92 3231ft 162kts
22-Feb-18 11:09 36.073714 -115.186053 93 2543ft 154kts
22-Feb-18 11:10 36.073630 -115.140491 88 2190ft 63kts
22-Feb-18 11:11 36.076593 -115.133829 358 2190ft 19kts
22-Feb-18 11:12 36.079268 -115.136325 313 2190ft 15kts
22-Feb-18 11:13 36.080344 -115.138751 339 2190ft 3kts

Navigation Log

Ident Type
Flight plan parsing failed, navigation log unavailable